Flugplatz Ochsenfurt

Für EDGJ sind keine METAR/TAF Berichte vorhanden.
Es werden die Flugwettermeldungen vom Flugplatz Illesheim Air Base in 31 km Entfernung angezeigt.

Bericht für ETIK

vom 10.04. um 11:56 UTC

Wind 7 kt aus 210°

Sichtweite 10 km oder mehr

bedeckt in 3700 ft

Temperatur 13.3°C

Taupunkt 5.2°C

Luftfeuchtigkeit 58%

Luftdruck 1015 hPa

ETIK 101156Z AUTO 21007KT 9999 OVC037 13/05 A2997 RMK AO2 SLP153 T01330052 10137 20109 58001

Prognose für ETIK

vom 09.04. um 20:36 UTC

Am 09.04. zwischen 20:00 UTC und 03:00 UTC

Wind 6 kt aus 240°

Sichtweite 10 km oder mehr

aufgelockert bewölkt in 15000 ft

aufgebrochene Bewölkung in 20000 ft


Zwischen 03:00 und 04:00 UTC übergehend zu

Wind 12 kt aus 240° in Böen 18 kt

Sichtweite 10 km oder mehr

aufgebrochene Bewölkung in 6000 ft


Zwischen 03:00 UTC und 13:00 UTC zeitweise

Wind 15 kt aus 240° in Böen 25 kt

Sichtweite 6000 m

schwacher Regenschauer

aufgebrochene Bewölkung in 2000 ft


Zwischen 13:00 und 14:00 UTC übergehend zu

Wind 10 kt aus 220° in Böen 15 kt

Sichtweite 10 km oder mehr

gering bewölkt in 5000 ft

TAF AMD ETIK 092036Z 0920/1020 24006KT 9999 SCT150 BKN200 QNH2994INS BECMG 1003/1004 24012G18KT 9999 BKN060 640603 540603 QNH2994INS TEMPO 1003/1013 24015G25KT 6000 -SHRA BKN020 BECMG 1013/1014 22010G15KT 9999 FEW050 520504 QNH2990INS TX16/0915Z TN06/0919Z LAST NO AMDS AFT 0922 NEXT 1206
Impressum